createdAt,value
2022-08-17T00:00:51.689Z,0.00
2022-08-17T00:01:51.816Z,0.00
2022-08-17T00:02:43.178Z,0.00
2022-08-17T00:03:42.041Z,0.00
2022-08-17T00:04:42.025Z,0.00
2022-08-17T00:05:42.035Z,0.00
2022-08-17T00:06:42.012Z,0.00
2022-08-17T00:07:42.073Z,0.00
2022-08-17T00:08:41.992Z,0.00
2022-08-17T00:09:41.975Z,0.00
2022-08-17T00:10:41.955Z,0.00
2022-08-17T00:11:41.973Z,0.00
2022-08-17T00:12:44.646Z,0.00
2022-08-17T00:13:42.939Z,0.00
2022-08-17T00:14:41.929Z,0.00
2022-08-17T00:15:41.919Z,0.00
2022-08-17T00:16:51.928Z,0.00
2022-08-17T00:17:42.903Z,0.00
2022-08-17T00:19:01.792Z,0.00
2022-08-17T00:19:42.906Z,0.00
2022-08-17T00:20:41.864Z,0.00
2022-08-17T00:22:29.835Z,0.00
2022-08-17T00:22:42.840Z,0.00
2022-08-17T00:23:48.965Z,0.00
2022-08-17T00:24:42.837Z,0.00
2022-08-17T00:25:41.813Z,0.00
2022-08-17T00:26:44.823Z,0.00
2022-08-17T00:27:41.800Z,0.00
2022-08-17T00:28:41.787Z,0.00
2022-08-17T00:29:41.784Z,0.00
2022-08-17T00:30:52.891Z,0.00
2022-08-17T00:31:42.780Z,0.00
2022-08-17T00:33:22.842Z,0.00
2022-08-17T00:33:42.739Z,0.00
2022-08-17T00:34:41.720Z,0.00
2022-08-17T00:35:41.723Z,0.00
2022-08-17T00:36:41.734Z,0.00
2022-08-17T00:37:41.705Z,0.00
2022-08-17T00:38:41.686Z,0.00
2022-08-17T00:39:41.747Z,0.00
2022-08-17T00:40:44.573Z,0.00
2022-08-17T00:41:42.451Z,0.00
2022-08-17T00:42:41.641Z,0.00
2022-08-17T00:43:41.661Z,0.00
2022-08-17T00:44:41.642Z,0.00
2022-08-17T00:45:41.619Z,0.00
2022-08-17T00:46:41.628Z,0.00
2022-08-17T00:47:41.603Z,0.00
2022-08-17T00:48:41.589Z,0.00
2022-08-17T00:49:41.576Z,0.00
2022-08-17T00:50:41.561Z,0.00
2022-08-17T00:51:41.580Z,0.00
2022-08-17T00:52:41.559Z,0.00
2022-08-17T00:53:41.544Z,0.00
2022-08-17T00:54:42.185Z,0.00
2022-08-17T00:55:41.520Z,0.00
2022-08-17T00:56:41.538Z,0.00
2022-08-17T00:57:41.501Z,0.00
2022-08-17T00:58:41.497Z,0.00
2022-08-17T00:59:41.487Z,0.00
2022-08-17T01:00:41.540Z,0.00
2022-08-17T01:01:41.530Z,0.00
2022-08-17T01:02:43.137Z,0.00
2022-08-17T01:03:41.445Z,0.00
2022-08-17T01:04:41.453Z,0.00
2022-08-17T01:05:42.261Z,0.00
2022-08-17T01:06:41.437Z,0.00
2022-08-17T01:07:41.412Z,0.00
2022-08-17T01:08:41.396Z,0.00
2022-08-17T01:09:41.381Z,0.00
2022-08-17T01:10:59.688Z,0.00
2022-08-17T01:11:42.375Z,0.00
2022-08-17T01:12:41.355Z,0.00
2022-08-17T01:13:41.846Z,0.00
2022-08-17T01:14:41.345Z,0.00
2022-08-17T01:15:41.329Z,0.00
2022-08-17T01:16:41.337Z,0.00
2022-08-17T01:17:41.310Z,0.00
2022-08-17T01:18:41.302Z,0.00
2022-08-17T01:19:41.298Z,0.00
2022-08-17T01:20:48.436Z,0.00
2022-08-17T01:21:41.280Z,0.00
2022-08-17T01:22:41.260Z,0.00
2022-08-17T01:23:41.258Z,0.00
2022-08-17T01:24:41.243Z,0.00
2022-08-17T01:25:41.233Z,0.00
2022-08-17T01:26:41.239Z,0.00
2022-08-17T01:27:41.225Z,0.00
2022-08-17T01:28:54.242Z,0.00
2022-08-17T01:29:42.200Z,0.00
2022-08-17T01:30:58.377Z,0.00
2022-08-17T01:31:42.200Z,0.00
2022-08-17T01:32:41.171Z,0.00
2022-08-17T01:33:41.158Z,0.00
2022-08-17T01:34:43.372Z,0.00
2022-08-17T01:35:42.144Z,0.00
2022-08-17T01:36:41.144Z,0.00
2022-08-17T01:37:41.114Z,0.00
2022-08-17T01:38:41.106Z,0.00
2022-08-17T01:39:41.157Z,0.00
2022-08-17T01:40:41.088Z,0.00
2022-08-17T01:41:41.101Z,0.00
2022-08-17T01:42:41.070Z,0.00
2022-08-17T01:43:41.059Z,0.00
2022-08-17T01:44:41.050Z,0.00
2022-08-17T01:45:41.039Z,0.00
2022-08-17T01:46:41.037Z,0.00
2022-08-17T01:47:41.017Z,0.00
2022-08-17T01:48:41.010Z,0.00
2022-08-17T01:49:40.996Z,0.00
2022-08-17T01:50:40.989Z,0.00
2022-08-17T01:51:40.992Z,0.00
2022-08-17T01:52:40.965Z,0.00
2022-08-17T01:53:40.945Z,0.00
2022-08-17T01:54:40.948Z,0.00
2022-08-17T01:55:40.932Z,0.00
2022-08-17T01:56:40.945Z,0.00
2022-08-17T01:57:40.916Z,0.00
2022-08-17T01:58:40.913Z,0.00
2022-08-17T01:59:40.904Z,0.00
2022-08-17T02:00:59.588Z,0.00
2022-08-17T02:01:41.947Z,0.00
2022-08-17T02:02:40.871Z,0.00
2022-08-17T02:03:40.865Z,0.00
2022-08-17T02:04:41.853Z,0.00
2022-08-17T02:05:40.838Z,0.00
2022-08-17T02:06:47.103Z,0.00
2022-08-17T02:07:47.996Z,0.00
2022-08-17T02:09:01.857Z,0.00
2022-08-17T02:09:42.117Z,0.00
2022-08-17T02:10:40.786Z,0.00
2022-08-17T02:11:41.800Z,0.00
2022-08-17T02:12:40.775Z,0.00
2022-08-17T02:13:40.761Z,0.00
2022-08-17T02:14:40.742Z,0.00
2022-08-17T02:15:41.744Z,0.00
2022-08-17T02:16:40.731Z,0.00
2022-08-17T02:17:40.738Z,0.00
2022-08-17T02:18:40.718Z,0.00
2022-08-17T02:19:40.703Z,0.00
2022-08-17T02:20:41.894Z,0.00
2022-08-17T02:21:40.674Z,0.00
2022-08-17T02:22:40.691Z,0.00
2022-08-17T02:23:40.670Z,0.00
2022-08-17T02:24:59.931Z,0.00
2022-08-17T02:25:41.640Z,0.00
2022-08-17T02:26:40.635Z,0.00
2022-08-17T02:27:40.636Z,0.00
2022-08-17T02:28:40.612Z,0.00
2022-08-17T02:29:40.609Z,0.00
2022-08-17T02:30:59.177Z,0.00
2022-08-17T02:31:41.590Z,0.00
2022-08-17T02:32:40.589Z,0.00
2022-08-17T02:33:42.999Z,0.00
2022-08-17T02:34:40.571Z,0.00
2022-08-17T02:35:40.551Z,0.00
2022-08-17T02:36:40.599Z,0.00
2022-08-17T02:37:40.542Z,0.00
2022-08-17T02:38:40.523Z,0.00
2022-08-17T02:39:40.592Z,0.00
2022-08-17T02:40:40.492Z,0.00
2022-08-17T02:41:40.501Z,0.00
2022-08-17T02:42:40.492Z,0.00
2022-08-17T02:43:40.483Z,0.00
2022-08-17T02:44:40.472Z,0.00
2022-08-17T02:45:40.451Z,0.00
2022-08-17T02:46:40.453Z,0.00
2022-08-17T02:47:40.433Z,0.00
2022-08-17T02:48:40.411Z,0.00
2022-08-17T02:49:40.409Z,0.00
2022-08-17T02:50:40.403Z,0.00
2022-08-17T02:51:40.408Z,0.00
2022-08-17T02:52:42.778Z,0.00
2022-08-17T02:53:40.367Z,0.00
2022-08-17T02:54:42.414Z,0.00
2022-08-17T02:55:41.355Z,0.00
2022-08-17T02:56:40.365Z,0.00
2022-08-17T02:57:40.337Z,0.00
2022-08-17T02:58:40.329Z,0.00
2022-08-17T02:59:42.367Z,0.00
2022-08-17T03:00:40.301Z,0.00
2022-08-17T03:01:40.421Z,0.00
2022-08-17T03:02:40.294Z,0.00
2022-08-17T03:03:40.275Z,0.00
2022-08-17T03:04:40.264Z,0.00
2022-08-17T03:05:40.254Z,0.00
2022-08-17T03:06:40.262Z,0.00
2022-08-17T03:07:40.259Z,0.00
2022-08-17T03:08:40.228Z,0.00
2022-08-17T03:09:40.216Z,0.00
2022-08-17T03:10:40.206Z,0.00
2022-08-17T03:11:40.197Z,0.00
2022-08-17T03:12:40.210Z,0.00
2022-08-17T03:13:40.176Z,0.00
2022-08-17T03:14:41.773Z,0.00
2022-08-17T03:15:43.958Z,0.00
2022-08-17T03:16:40.134Z,0.00
2022-08-17T03:17:40.156Z,0.00
2022-08-17T03:18:40.121Z,0.00
2022-08-17T03:19:43.355Z,0.00
2022-08-17T03:20:40.094Z,0.00
2022-08-17T03:21:41.100Z,0.00
2022-08-17T03:22:40.095Z,0.00
2022-08-17T03:23:40.067Z,0.00
2022-08-17T03:24:40.070Z,0.00
2022-08-17T03:25:40.062Z,0.00
2022-08-17T03:26:40.045Z,0.00
2022-08-17T03:27:40.042Z,0.00
2022-08-17T03:28:40.028Z,4.00
2022-08-17T03:29:40.016Z,4.00
2022-08-17T03:30:40.034Z,0.00
2022-08-17T03:31:39.994Z,0.00
2022-08-17T03:32:40.004Z,4.00
2022-08-17T03:33:39.980Z,0.00
2022-08-17T03:34:39.969Z,4.00
2022-08-17T03:35:39.957Z,4.00
2022-08-17T03:36:39.941Z,4.00
2022-08-17T03:37:39.953Z,4.00
2022-08-17T03:38:39.923Z,8.00
2022-08-17T03:39:39.970Z,8.00
2022-08-17T03:40:59.066Z,8.00
2022-08-17T03:41:40.902Z,8.00
2022-08-17T03:42:39.907Z,8.00
2022-08-17T03:43:39.881Z,12.00
2022-08-17T03:44:39.866Z,12.00
2022-08-17T03:45:39.865Z,12.00
2022-08-17T03:46:39.854Z,16.00
2022-08-17T03:47:39.862Z,20.00
2022-08-17T03:48:39.826Z,24.00
2022-08-17T03:49:39.824Z,24.00
2022-08-17T03:50:39.814Z,28.00
2022-08-17T03:51:39.790Z,36.00
2022-08-17T03:52:40.811Z,36.00
2022-08-17T03:53:39.790Z,48.00
2022-08-17T03:54:39.766Z,52.00
2022-08-17T03:55:39.768Z,60.00
2022-08-17T03:56:39.754Z,68.00
2022-08-17T03:57:39.761Z,80.00
2022-08-17T03:58:52.076Z,92.00
2022-08-17T03:59:39.727Z,108.00
2022-08-17T04:00:39.899Z,120.00
2022-08-17T04:01:39.726Z,140.00
2022-08-17T04:02:39.714Z,156.00
2022-08-17T04:03:39.687Z,176.00
2022-08-17T04:04:39.676Z,200.00
2022-08-17T04:05:39.668Z,224.00
2022-08-17T04:06:39.646Z,244.00
2022-08-17T04:07:39.662Z,264.00
2022-08-17T04:08:39.636Z,276.00
2022-08-17T04:09:39.628Z,284.00
2022-08-17T04:10:41.941Z,300.00
2022-08-17T04:11:40.601Z,320.00
2022-08-17T04:12:39.618Z,344.00
2022-08-17T04:13:39.590Z,360.00
2022-08-17T04:14:53.169Z,380.00
2022-08-17T04:15:40.573Z,400.00
2022-08-17T04:16:39.556Z,428.00
2022-08-17T04:17:39.565Z,460.00
2022-08-17T04:18:39.531Z,496.00
2022-08-17T04:19:39.522Z,532.00
2022-08-17T04:20:39.525Z,568.00
2022-08-17T04:21:39.508Z,608.00
2022-08-17T04:22:39.515Z,648.00
2022-08-17T04:23:39.485Z,684.00
2022-08-17T04:24:39.482Z,724.00
2022-08-17T04:25:39.469Z,760.00
2022-08-17T04:26:52.810Z,800.00
2022-08-17T04:27:40.466Z,840.00
2022-08-17T04:28:39.439Z,872.00
2022-08-17T04:29:54.938Z,904.00
2022-08-17T04:30:40.421Z,944.00
2022-08-17T04:31:39.404Z,984.00
2022-08-17T04:33:03.523Z,1032.00
2022-08-17T04:33:40.388Z,1092.00
2022-08-17T04:34:39.374Z,1164.00
2022-08-17T04:35:39.364Z,1240.00
2022-08-17T04:36:39.357Z,1320.00
2022-08-17T04:37:39.364Z,1392.00
2022-08-17T04:38:39.341Z,1468.00
2022-08-17T04:39:39.396Z,1552.00
2022-08-17T04:40:39.319Z,1632.00
2022-08-17T04:41:39.305Z,1716.00
2022-08-17T04:42:39.305Z,1796.00
2022-08-17T04:43:39.298Z,1888.00
2022-08-17T04:44:39.289Z,1984.00
2022-08-17T04:45:39.267Z,2088.00
2022-08-17T04:46:39.259Z,2192.00
2022-08-17T04:47:39.265Z,2288.00
2022-08-17T04:48:39.235Z,2388.00
2022-08-17T04:49:39.217Z,2496.00
2022-08-17T04:50:39.213Z,2612.00
2022-08-17T04:51:39.207Z,2748.00
2022-08-17T04:52:53.877Z,2892.00
2022-08-17T04:53:40.187Z,3040.00
2022-08-17T04:54:39.173Z,3176.00
2022-08-17T04:55:39.165Z,3316.00
2022-08-17T04:56:39.158Z,3452.00
2022-08-17T04:57:44.566Z,3604.00
2022-08-17T04:58:40.126Z,3756.00
2022-08-17T04:59:39.129Z,3860.00
2022-08-17T05:00:39.121Z,3960.00
2022-08-17T05:01:39.139Z,4116.00
2022-08-17T05:02:39.097Z,4272.00
2022-08-17T05:03:40.087Z,4476.00
2022-08-17T05:04:39.081Z,4536.00
2022-08-17T05:05:39.079Z,4660.00
2022-08-17T05:06:39.054Z,4844.00
2022-08-17T05:07:39.065Z,4940.00
2022-08-17T05:08:39.036Z,5052.00
2022-08-17T05:09:39.025Z,5088.00
2022-08-17T05:10:45.567Z,5080.00
2022-08-17T05:11:40.014Z,5132.00
2022-08-17T05:12:40.015Z,5124.00
2022-08-17T05:13:38.983Z,5132.00
2022-08-17T05:14:38.973Z,5120.00
2022-08-17T05:15:38.977Z,5092.00
2022-08-17T05:16:39.956Z,5044.00
2022-08-17T05:17:38.976Z,5012.00
2022-08-17T05:18:38.997Z,5056.00
2022-08-17T05:19:38.932Z,5140.00
2022-08-17T05:20:38.921Z,5284.00
2022-08-17T05:21:38.902Z,5204.00
2022-08-17T05:22:38.902Z,5276.00
2022-08-17T05:23:42.418Z,5496.00
2022-08-17T05:24:53.510Z,5644.00
2022-08-17T05:25:39.873Z,5840.00
2022-08-17T05:26:38.862Z,5964.00
2022-08-17T05:27:38.869Z,5992.00
2022-08-17T05:28:38.838Z,6028.00
2022-08-17T05:29:38.832Z,6040.00
2022-08-17T05:30:38.808Z,6064.00
2022-08-17T05:31:38.805Z,6052.00
2022-08-17T05:32:40.355Z,6100.00
2022-08-17T05:33:44.308Z,6184.00
2022-08-17T05:34:39.774Z,6144.00
2022-08-17T05:35:38.771Z,6032.00
2022-08-17T05:36:42.887Z,5564.00
2022-08-17T05:37:39.765Z,5168.00
2022-08-17T05:38:38.734Z,5016.00
2022-08-17T05:39:38.809Z,4936.00
2022-08-17T05:40:38.725Z,4836.00
2022-08-17T05:41:38.704Z,4728.00
2022-08-17T05:42:38.702Z,4668.00
2022-08-17T05:43:38.689Z,4704.00
2022-08-17T05:44:38.677Z,4684.00
2022-08-17T05:45:55.575Z,4684.00
2022-08-17T05:46:39.655Z,4692.00
2022-08-17T05:47:38.669Z,4744.00
2022-08-17T05:48:40.149Z,4868.00
2022-08-17T05:49:38.624Z,4988.00
2022-08-17T05:50:38.607Z,5104.00
2022-08-17T05:51:38.612Z,5236.00
2022-08-17T05:52:38.614Z,5408.00
2022-08-17T05:53:38.620Z,5600.00
2022-08-17T05:54:38.584Z,5924.00
2022-08-17T05:55:38.606Z,6288.00
2022-08-17T05:56:38.559Z,6492.00
2022-08-17T05:57:39.900Z,6672.00
2022-08-17T05:58:38.538Z,6884.00
2022-08-17T05:59:38.533Z,7028.00
2022-08-17T06:00:41.811Z,7148.00
2022-08-17T06:01:38.566Z,7204.00
2022-08-17T06:02:38.510Z,7160.00
2022-08-17T06:03:38.500Z,7264.00
2022-08-17T06:04:38.493Z,7392.00
2022-08-17T06:05:38.475Z,7444.00
2022-08-17T06:06:38.457Z,7392.00
2022-08-17T06:07:38.476Z,7276.00
2022-08-17T06:08:38.451Z,7460.00
2022-08-17T06:09:38.448Z,7504.00
2022-08-17T06:10:38.424Z,7580.00
2022-08-17T06:11:38.423Z,7676.00
2022-08-17T06:12:38.431Z,7732.00
2022-08-17T06:13:38.402Z,7752.00
2022-08-17T06:14:38.386Z,7776.00
2022-08-17T06:15:38.383Z,7844.00
2022-08-17T06:16:38.368Z,7776.00
2022-08-17T06:17:38.375Z,7896.00
2022-08-17T06:18:38.344Z,7788.00
2022-08-17T06:19:38.349Z,7804.00
2022-08-17T06:20:38.338Z,7680.00
2022-08-17T06:21:38.324Z,7824.00
2022-08-17T06:22:38.329Z,7820.00
2022-08-17T06:23:38.308Z,7868.00
2022-08-17T06:24:38.297Z,7912.00
2022-08-17T06:25:38.289Z,8012.00
2022-08-17T06:26:42.769Z,7992.00
2022-08-17T06:27:39.304Z,8068.00
2022-08-17T06:28:38.267Z,7920.00
2022-08-17T06:29:38.245Z,8088.00
2022-08-17T06:30:57.603Z,8232.00
2022-08-17T06:31:39.234Z,8276.00
2022-08-17T06:32:38.231Z,8312.00
2022-08-17T06:33:38.204Z,8332.00
2022-08-17T06:34:38.196Z,8360.00
2022-08-17T06:35:38.186Z,8364.00
2022-08-17T06:36:38.164Z,8292.00
2022-08-17T06:37:38.188Z,8168.00
2022-08-17T06:38:38.858Z,8128.00
2022-08-17T06:39:39.223Z,8248.00
2022-08-17T06:40:38.143Z,8376.00
2022-08-17T06:41:38.221Z,8468.00
2022-08-17T06:43:02.513Z,8476.00
2022-08-17T06:43:39.116Z,8584.00
2022-08-17T06:44:43.479Z,8624.00
2022-08-17T06:45:39.097Z,8656.00
2022-08-17T06:46:38.085Z,8676.00
2022-08-17T06:47:38.089Z,8708.00
2022-08-17T06:48:38.071Z,8752.00
2022-08-17T06:49:38.046Z,8804.00
2022-08-17T06:50:38.042Z,8860.00
2022-08-17T06:51:39.520Z,8896.00
2022-08-17T06:52:46.090Z,8928.00
2022-08-17T06:53:38.015Z,8980.00
2022-08-17T06:54:38.003Z,9016.00
2022-08-17T06:55:38.426Z,9096.00
2022-08-17T06:56:53.408Z,9152.00
2022-08-17T06:57:38.998Z,9176.00
2022-08-17T06:58:38.877Z,9200.00
2022-08-17T06:59:55.843Z,9224.00
2022-08-17T07:00:39.008Z,8044.00
2022-08-17T07:01:38.033Z,7308.00
2022-08-17T07:02:51.891Z,7904.00
2022-08-17T07:03:38.922Z,7636.00
2022-08-17T07:04:37.919Z,7392.00
2022-08-17T07:05:38.858Z,7696.00
2022-08-17T07:06:38.149Z,7828.00
2022-08-17T07:07:37.907Z,7624.00
2022-08-17T07:08:37.870Z,7592.00
2022-08-17T07:09:37.866Z,7992.00
2022-08-17T07:10:37.860Z,8452.00
2022-08-17T07:11:37.846Z,8904.00
2022-08-17T07:12:37.861Z,9532.00
2022-08-17T07:13:37.826Z,9224.00
2022-08-17T07:14:37.822Z,9052.00
2022-08-17T07:15:37.807Z,9160.00
2022-08-17T07:16:37.789Z,9264.00
2022-08-17T07:17:47.356Z,9080.00
2022-08-17T07:18:38.773Z,9556.00
2022-08-17T07:19:37.782Z,8792.00
2022-08-17T07:20:37.759Z,8840.00
2022-08-17T07:21:37.759Z,8720.00
2022-08-17T07:22:50.367Z,8724.00
2022-08-17T07:23:38.732Z,8820.00
2022-08-17T07:24:37.719Z,9016.00
2022-08-17T07:25:37.712Z,9208.00
2022-08-17T07:26:37.699Z,9560.00
2022-08-17T07:27:37.717Z,10236.00
2022-08-17T07:28:37.669Z,9396.00
2022-08-17T07:29:37.677Z,9164.00
2022-08-17T07:30:46.881Z,8692.00
2022-08-17T07:31:38.658Z,8796.00
2022-08-17T07:32:37.660Z,9188.00
2022-08-17T07:33:37.716Z,9928.00
2022-08-17T07:34:37.620Z,10156.00
2022-08-17T07:35:41.441Z,10164.00
2022-08-17T07:36:37.605Z,9924.00
2022-08-17T07:37:37.614Z,10664.00
2022-08-17T07:38:37.585Z,11104.00
2022-08-17T07:39:37.652Z,11340.00
2022-08-17T07:40:38.589Z,11332.00
2022-08-17T07:41:57.632Z,11352.00
2022-08-17T07:42:43.085Z,11048.00
2022-08-17T07:43:38.539Z,11204.00
2022-08-17T07:44:37.528Z,11196.00
2022-08-17T07:45:37.517Z,11248.00
2022-08-17T07:46:37.503Z,10788.00
2022-08-17T07:47:37.513Z,10828.00
2022-08-17T07:48:37.499Z,10912.00
2022-08-17T07:49:37.486Z,10912.00
2022-08-17T07:50:37.467Z,10660.00
2022-08-17T07:51:37.471Z,10776.00
2022-08-17T07:52:50.501Z,10760.00
2022-08-17T07:53:38.435Z,10776.00
2022-08-17T07:54:37.423Z,10740.00
2022-08-17T07:55:37.418Z,10664.00
2022-08-17T07:56:37.402Z,10508.00
2022-08-17T07:57:37.414Z,10416.00
2022-08-17T07:58:37.388Z,10204.00
2022-08-17T07:59:37.384Z,10024.00
2022-08-17T08:00:37.364Z,9936.00
2022-08-17T08:01:41.738Z,10312.00
2022-08-17T08:02:37.367Z,10596.00
2022-08-17T08:03:37.344Z,10540.00
2022-08-17T08:05:50.608Z,10688.00
2022-08-17T08:06:38.318Z,10604.00
2022-08-17T08:07:37.314Z,10612.00
2022-08-17T08:08:37.291Z,10436.00
2022-08-17T08:09:37.277Z,10400.00
2022-08-17T08:10:37.273Z,10568.00
2022-08-17T08:11:40.196Z,10552.00
2022-08-17T08:12:37.268Z,10452.00
2022-08-17T08:13:37.241Z,10552.00
2022-08-17T08:14:37.231Z,10256.00
2022-08-17T08:15:37.228Z,9808.00
2022-08-17T08:16:37.207Z,9844.00
2022-08-17T08:17:37.218Z,10260.00
2022-08-17T08:18:53.421Z,10320.00
2022-08-17T08:19:38.187Z,10060.00
2022-08-17T08:20:51.284Z,9876.00
2022-08-17T08:21:38.168Z,9864.00
2022-08-17T08:22:37.165Z,10064.00
2022-08-17T08:23:37.142Z,9720.00
2022-08-17T08:24:37.126Z,10044.00
2022-08-17T08:25:37.123Z,10112.00
2022-08-17T08:26:37.104Z,10276.00
2022-08-17T08:27:38.119Z,10344.00
2022-08-17T08:28:37.081Z,10344.00
2022-08-17T08:29:37.118Z,10100.00
2022-08-17T08:30:37.076Z,10128.00
2022-08-17T08:31:42.057Z,10024.00
2022-08-17T08:32:38.080Z,10476.00
2022-08-17T08:33:37.050Z,10112.00
2022-08-17T08:34:58.987Z,10648.00
2022-08-17T08:35:38.024Z,11040.00
2022-08-17T08:37:02.041Z,10268.00
2022-08-17T08:37:42.131Z,9548.00
2022-08-17T08:38:39.000Z,9288.00
2022-08-17T08:39:37.050Z,9416.00
2022-08-17T08:40:36.987Z,9116.00
2022-08-17T08:41:36.974Z,9036.00
2022-08-17T08:42:36.988Z,9508.00
2022-08-17T08:43:36.953Z,9688.00
2022-08-17T08:45:00.063Z,10828.00
2022-08-17T08:45:37.937Z,9648.00
2022-08-17T08:46:36.932Z,11188.00
2022-08-17T08:47:36.937Z,10948.00
2022-08-17T08:48:57.957Z,10772.00
2022-08-17T08:50:02.644Z,10368.00
2022-08-17T08:50:38.904Z,9952.00
2022-08-17T08:51:36.881Z,10100.00
2022-08-17T08:52:36.869Z,8708.00
2022-08-17T08:53:36.862Z,9856.00
2022-08-17T08:54:36.851Z,9376.00
2022-08-17T08:55:36.834Z,11016.00
2022-08-17T08:56:37.823Z,10400.00
2022-08-17T08:57:36.839Z,11132.00
2022-08-17T08:58:42.295Z,8756.00
2022-08-17T08:59:41.814Z,8784.00
2022-08-17T09:00:36.788Z,8816.00
2022-08-17T09:01:36.844Z,10676.00
2022-08-17T09:02:36.788Z,11076.00
2022-08-17T09:03:52.156Z,10868.00
2022-08-17T09:05:10.287Z,11044.00
2022-08-17T09:05:37.746Z,10412.00
2022-08-17T09:06:38.903Z,10572.00
2022-08-17T09:07:36.749Z,9028.00
2022-08-17T09:08:36.706Z,9544.00
2022-08-17T09:09:36.703Z,11144.00
2022-08-17T09:10:36.696Z,11024.00
2022-08-17T09:11:36.691Z,10824.00
2022-08-17T09:12:37.701Z,11656.00
2022-08-17T09:13:36.681Z,12536.00
2022-08-17T09:14:46.743Z,12084.00
2022-08-17T09:15:38.646Z,12980.00
2022-08-17T09:16:36.629Z,13184.00
2022-08-17T09:17:36.650Z,14224.00
2022-08-17T09:19:00.247Z,14720.00
2022-08-17T09:19:37.614Z,15552.00
2022-08-17T09:20:36.594Z,16096.00
2022-08-17T09:21:36.604Z,16576.00
2022-08-17T09:22:36.594Z,16576.00
2022-08-17T09:23:36.601Z,15648.00
2022-08-17T09:24:36.560Z,14600.00
2022-08-17T09:25:36.563Z,14616.00
2022-08-17T09:26:36.551Z,14860.00
2022-08-17T09:27:36.533Z,15936.00
2022-08-17T09:28:36.541Z,16448.00
2022-08-17T09:29:36.518Z,17024.00
2022-08-17T09:30:36.510Z,17024.00
2022-08-17T09:31:49.032Z,17856.00
2022-08-17T09:32:37.483Z,18432.00
2022-08-17T09:33:36.496Z,18528.00
2022-08-17T09:34:36.472Z,17440.00
2022-08-17T09:35:36.908Z,16672.00
2022-08-17T09:36:36.452Z,16480.00
2022-08-17T09:37:36.449Z,16320.00
2022-08-17T09:38:36.450Z,16512.00
2022-08-17T09:39:36.479Z,16512.00
2022-08-17T09:40:36.435Z,16608.00
2022-08-17T09:41:36.413Z,16832.00
2022-08-17T09:42:36.400Z,17248.00
2022-08-17T09:43:36.404Z,17280.00
2022-08-17T09:44:36.371Z,17248.00
2022-08-17T09:45:36.389Z,17408.00
2022-08-17T09:46:38.748Z,17952.00
2022-08-17T09:47:36.351Z,18496.00
2022-08-17T09:48:36.356Z,19968.00
2022-08-17T09:49:36.341Z,19712.00
2022-08-17T09:51:05.341Z,19808.00
2022-08-17T09:51:37.319Z,18176.00
2022-08-17T09:52:36.303Z,17088.00
2022-08-17T09:53:37.331Z,16608.00
2022-08-17T09:54:40.349Z,16288.00
2022-08-17T09:55:37.280Z,16064.00
2022-08-17T09:56:36.256Z,15552.00
2022-08-17T09:57:36.253Z,15292.00
2022-08-17T09:58:36.259Z,15272.00
2022-08-17T10:00:02.144Z,15368.00
2022-08-17T10:00:36.239Z,15156.00
2022-08-17T10:01:36.246Z,15152.00
2022-08-17T10:02:36.211Z,16224.00
2022-08-17T10:03:36.223Z,17248.00
2022-08-17T10:04:36.197Z,17344.00
2022-08-17T10:05:36.194Z,17440.00
2022-08-17T10:06:36.177Z,16672.00
2022-08-17T10:07:36.163Z,17568.00
2022-08-17T10:08:36.175Z,17408.00
2022-08-17T10:09:36.148Z,18112.00
2022-08-17T10:10:36.142Z,18656.00
2022-08-17T10:11:36.125Z,18688.00
2022-08-17T10:12:37.125Z,17600.00
2022-08-17T10:13:36.128Z,18496.00
2022-08-17T10:14:44.180Z,18944.00
2022-08-17T10:15:36.096Z,18080.00
2022-08-17T10:16:36.094Z,18080.00
2022-08-17T10:17:36.083Z,18304.00
2022-08-17T10:18:36.081Z,18528.00
2022-08-17T10:19:36.052Z,18496.00
2022-08-17T10:20:36.046Z,18144.00
2022-08-17T10:21:36.039Z,18656.00
2022-08-17T10:22:38.087Z,19520.00
2022-08-17T10:23:36.037Z,19232.00
2022-08-17T10:24:37.019Z,18592.00
2022-08-17T10:25:53.663Z,18592.00
2022-08-17T10:26:54.164Z,19872.00
2022-08-17T10:27:36.983Z,20704.00
2022-08-17T10:28:36.038Z,20512.00
2022-08-17T10:29:49.190Z,18176.00
2022-08-17T10:30:36.948Z,17760.00
2022-08-17T10:31:36.420Z,17536.00
2022-08-17T10:32:35.941Z,16864.00
2022-08-17T10:33:35.987Z,18752.00
2022-08-17T10:34:38.785Z,16992.00
2022-08-17T10:35:35.921Z,16576.00
2022-08-17T10:36:35.910Z,18816.00
2022-08-17T10:37:35.906Z,18720.00
2022-08-17T10:38:35.908Z,16128.00
2022-08-17T10:39:35.946Z,17184.00
2022-08-17T10:40:36.876Z,15968.00
2022-08-17T10:41:40.195Z,15300.00
2022-08-17T10:42:36.853Z,15380.00
2022-08-17T10:43:35.859Z,15308.00
2022-08-17T10:44:38.381Z,15204.00
2022-08-17T10:45:35.825Z,15244.00
2022-08-17T10:46:35.815Z,15240.00
2022-08-17T10:47:54.701Z,15280.00
2022-08-17T10:48:37.819Z,15344.00
2022-08-17T10:49:35.794Z,15324.00
2022-08-17T10:50:36.779Z,15340.00
2022-08-17T10:51:35.781Z,15088.00
2022-08-17T10:52:35.781Z,14856.00
2022-08-17T10:53:35.790Z,14596.00
2022-08-17T10:54:35.763Z,14344.00
2022-08-17T10:55:35.763Z,14140.00
2022-08-17T10:56:35.750Z,14012.00
2022-08-17T10:57:35.728Z,13792.00
2022-08-17T10:58:35.741Z,13576.00
2022-08-17T10:59:35.719Z,13424.00
2022-08-17T11:00:35.774Z,13328.00
2022-08-17T11:01:35.799Z,13236.00
2022-08-17T11:02:35.686Z,13240.00
2022-08-17T11:03:35.691Z,13400.00
2022-08-17T11:04:35.672Z,13692.00
2022-08-17T11:05:38.947Z,14064.00
2022-08-17T11:06:35.648Z,14420.00
2022-08-17T11:07:35.642Z,14772.00
2022-08-17T11:08:35.653Z,15172.00
2022-08-17T11:09:35.622Z,15584.00
2022-08-17T11:10:35.606Z,15968.00
2022-08-17T11:11:35.696Z,16384.00
2022-08-17T11:12:35.592Z,16832.00
2022-08-17T11:13:35.593Z,17056.00
2022-08-17T11:14:35.570Z,17120.00
2022-08-17T11:15:35.563Z,17056.00
2022-08-17T11:16:35.558Z,17248.00
2022-08-17T11:17:35.538Z,16896.00
2022-08-17T11:18:35.554Z,16576.00
2022-08-17T11:19:35.528Z,16192.00
2022-08-17T11:20:35.520Z,15680.00
2022-08-17T11:21:35.512Z,15260.00
2022-08-17T11:22:35.509Z,15028.00
2022-08-17T11:23:35.507Z,15004.00
2022-08-17T11:24:35.502Z,15004.00
2022-08-17T11:25:35.469Z,15216.00
2022-08-17T11:26:35.464Z,15596.00
2022-08-17T11:27:35.453Z,16096.00
2022-08-17T11:28:35.471Z,16672.00
2022-08-17T11:29:35.428Z,16992.00
2022-08-17T11:30:35.431Z,17216.00
2022-08-17T11:31:38.456Z,17632.00
2022-08-17T11:32:35.416Z,17504.00
2022-08-17T11:33:36.912Z,17440.00
2022-08-17T11:34:35.405Z,17344.00
2022-08-17T11:35:35.413Z,17312.00
2022-08-17T11:36:35.385Z,17248.00
2022-08-17T11:37:35.378Z,17248.00
2022-08-17T11:38:35.372Z,17088.00
2022-08-17T11:39:35.444Z,17024.00
2022-08-17T11:40:35.345Z,16800.00
2022-08-17T11:41:35.330Z,16448.00
2022-08-17T11:42:35.328Z,16000.00
2022-08-17T11:43:39.532Z,15456.00
2022-08-17T11:44:36.308Z,15080.00
2022-08-17T11:45:35.293Z,14784.00
2022-08-17T11:46:35.297Z,14564.00
2022-08-17T11:47:35.286Z,14480.00
2022-08-17T11:48:35.779Z,14524.00
2022-08-17T11:49:35.263Z,14700.00
2022-08-17T11:50:35.252Z,14920.00
2022-08-17T11:51:35.250Z,15072.00
2022-08-17T11:52:35.236Z,15096.00
2022-08-17T11:53:35.244Z,14960.00
2022-08-17T11:54:35.223Z,14696.00
2022-08-17T11:55:39.343Z,14256.00
2022-08-17T11:56:37.200Z,13720.00
2022-08-17T11:57:35.200Z,13224.00
2022-08-17T11:58:35.192Z,12736.00
2022-08-17T11:59:35.165Z,12224.00
2022-08-17T12:00:35.163Z,11632.00
2022-08-17T12:01:35.140Z,11096.00
2022-08-17T12:02:35.212Z,10616.00
2022-08-17T12:03:35.155Z,10140.00
2022-08-17T12:04:35.170Z,9672.00
2022-08-17T12:05:35.105Z,9208.00
2022-08-17T12:06:35.101Z,8752.00
2022-08-17T12:07:35.100Z,8284.00
2022-08-17T12:08:35.101Z,7844.00
2022-08-17T12:09:35.073Z,7472.00
2022-08-17T12:10:35.077Z,7160.00
2022-08-17T12:12:11.076Z,6896.00
2022-08-17T12:12:36.081Z,6728.00
2022-08-17T12:13:39.799Z,6636.00
2022-08-17T12:15:08.062Z,6632.00
2022-08-17T12:15:37.021Z,6700.00
2022-08-17T12:16:35.046Z,6808.00
2022-08-17T12:17:52.228Z,6928.00
2022-08-17T12:18:36.050Z,7024.00
2022-08-17T12:19:35.004Z,7108.00
2022-08-17T12:20:34.976Z,7164.00
2022-08-17T12:21:34.973Z,7180.00